Anderson Grade Atmospheric Data: 05/15/2019 Summary  Detailed Graphs  Station List

  Temperature     Wind Precipitation Visibility
Timestamp Air Wet
Bulb
Dew-
point
24-hr
Max
24-hr
Min
Relative
Humidity
Atmospheric
Pressure
Avg
Speed
Avg
Dir
Spot
Speed
Spot
Dir
Max
Speed
Max
Dir
  Rate Situation Start End 1 hr 3 hr 6 hr 12 hr 24 hr   Situation
Date Time °F °F °F °F °F % in Hg mph ° mph ° mph ° Y/N in/hr text Date Time Date Time in in in in in mi text
05/15/2019 12:01 AM 53.06 48.74 44.78 77.00 48.56 73.0 Not Reported 2.91 NW 2.68 NW 6.49 N No 0.000 No Precipitation 05/14/2019 01:19 PM 05/14/2019 01:24 PM 0.000 0.004 0.004 0.012 0.012 Not Reported Not Reported
05/15/2019 12:16 AM 52.52 48.56 45.14 77.00 48.56 75.0 Not Reported 2.01 N 3.80 NW 4.25 NW No 0.000 No Precipitation 05/14/2019 01:19 PM 05/14/2019 01:24 PM 0.000 0.004 0.004 0.012 0.012 Not Reported Not Reported
05/15/2019 12:31 AM 53.60 48.74 44.42 77.00 48.56 71.0 Not Reported 2.68 NW 1.79 NW 4.47 NW No 0.000 No Precipitation 05/14/2019 01:19 PM 05/14/2019 01:24 PM 0.000 0.000 0.004 0.012 0.012 Not Reported Not Reported
05/15/2019 12:46 AM 52.52 48.56 44.96 77.00 48.56 75.0 Not Reported 1.79 N 1.57 N 3.36 N No 0.000 No Precipitation 05/14/2019 01:19 PM 05/14/2019 01:24 PM 0.000 0.000 0.004 0.012 0.012 Not Reported Not Reported
05/15/2019 01:01 AM 52.34 48.38 44.78 61.34 52.34 75.0 Not Reported 2.24 NW 2.91 NW 3.58 NW No 0.000 No Precipitation 05/14/2019 01:19 PM 05/14/2019 01:24 PM 0.000 0.000 0.004 0.012 0.012 Not Reported Not Reported
05/15/2019 01:16 AM 52.34 48.56 45.14 61.34 52.34 75.0 Not Reported 2.68 NW 2.68 NW 4.47 NW No 0.000 No Precipitation 05/14/2019 01:19 PM 05/14/2019 01:24 PM 0.000 0.000 0.004 0.012 0.012 Not Reported Not Reported
05/15/2019 01:31 AM 52.34 48.38 44.78 61.34 52.34 75.0 Not Reported 3.36 NW 4.47 NW 4.03 NW No 0.000 No Precipitation 05/14/2019 01:19 PM 05/14/2019 01:24 PM 0.000 0.000 0.004 0.008 0.012 Not Reported Not Reported
05/15/2019 01:46 AM 52.34 48.38 44.96 61.34 52.34 75.0 Not Reported 2.46 NW 4.47 N 5.14 NW No 0.000 No Precipitation 05/14/2019 01:19 PM 05/14/2019 01:24 PM 0.000 0.000 0.004 0.008 0.012 Not Reported Not Reported
05/15/2019 02:01 AM 51.98 48.38 45.14 61.34 52.34 76.0 Not Reported 1.79 NW 2.01 N 4.03 N No 0.000 No Precipitation 05/14/2019 01:19 PM 05/14/2019 01:24 PM 0.000 0.000 0.004 0.008 0.012 Not Reported Not Reported
05/15/2019 02:16 AM 52.16 48.38 44.96 61.34 52.34 76.0 Not Reported 1.79 N 2.24 N 3.80 NW No 0.000 No Precipitation 05/14/2019 01:19 PM 05/14/2019 01:24 PM 0.000 0.000 0.004 0.008 0.012 Not Reported Not Reported
05/15/2019 02:31 AM 51.80 48.38 45.14 61.34 52.34 77.0 Not Reported 3.80 NW 3.80 NW 4.70 NW No 0.000 No Precipitation 05/14/2019 01:19 PM 05/14/2019 01:24 PM 0.000 0.000 0.004 0.008 0.012 Not Reported Not Reported
05/15/2019 02:46 AM 51.26 48.20 45.50 61.34 52.34 80.0 Not Reported 3.58 NW 2.91 NW 3.80 NW No 0.000 No Precipitation 05/14/2019 01:19 PM 05/14/2019 01:24 PM 0.000 0.000 0.004 0.008 0.012 Not Reported Not Reported
05/15/2019 03:01 AM 50.72 48.20 45.86 61.34 52.34 83.0 Not Reported 5.14 NW 4.47 NW 5.59 NW No 0.000 No Precipitation 05/14/2019 01:19 PM 05/14/2019 01:24 PM 0.000 0.000 0.004 0.008 0.012 Not Reported Not Reported
05/15/2019 03:16 AM 50.54 48.38 46.22 61.34 52.34 84.0 Not Reported 2.01 N 2.01 N 5.14 NW No 0.000 No Precipitation 05/14/2019 01:19 PM 05/14/2019 01:24 PM 0.000 0.000 0.004 0.008 0.012 Not Reported Not Reported
05/15/2019 03:31 AM 50.90 48.38 46.22 61.34 52.34 84.0 Not Reported 3.13 N 3.13 NW 4.03 N No 0.000 No Precipitation 05/14/2019 01:19 PM 05/14/2019 01:24 PM 0.000 0.000 0.000 0.008 0.012 Not Reported Not Reported
05/15/2019 03:46 AM 50.36 48.20 46.40 61.34 52.34 85.0 Not Reported 4.92 NW 2.91 N 5.37 NW No 0.000 No Precipitation 05/14/2019 01:19 PM 05/14/2019 01:24 PM 0.000 0.000 0.000 0.008 0.012 Not Reported Not Reported
05/15/2019 04:01 AM 51.26 48.38 45.86 61.34 52.34 81.0 Not Reported 2.46 NW 3.80 NW 4.25 NW No 0.000 No Precipitation 05/14/2019 01:19 PM 05/14/2019 01:24 PM 0.000 0.000 0.000 0.008 0.012 Not Reported Not Reported
05/15/2019 04:16 AM 51.26 48.20 45.50 61.34 52.34 80.0 Not Reported 3.13 NW 2.01 NW 3.80 NW No 0.000 No Precipitation 05/14/2019 01:19 PM 05/14/2019 01:24 PM 0.000 0.000 0.000 0.004 0.012 Not Reported Not Reported
05/15/2019 04:31 AM 50.90 48.20 45.86 61.34 52.34 82.0 Not Reported 4.25 NW 3.80 NW 4.92 NW No 0.000 No Precipitation 05/14/2019 01:19 PM 05/14/2019 01:24 PM 0.000 0.000 0.000 0.004 0.012 Not Reported Not Reported
05/15/2019 04:46 AM 51.08 48.38 46.04 61.34 52.34 82.0 Not Reported 3.58 NW 2.01 N 3.80 NW No 0.000 No Precipitation 05/14/2019 01:19 PM 05/14/2019 01:24 PM 0.000 0.000 0.000 0.004 0.012 Not Reported Not Reported
05/15/2019 05:01 AM 50.72 48.20 45.86 61.34 52.34 82.0 Not Reported 4.03 NW 3.13 NW 4.92 NW No 0.000 No Precipitation 05/14/2019 01:19 PM 05/14/2019 01:24 PM 0.000 0.000 0.000 0.004 0.012 Not Reported Not Reported
05/15/2019 05:16 AM 50.90 48.20 45.50 61.34 52.34 81.0 Not Reported 1.57 NW 2.68 W 4.25 NW No 0.000 No Precipitation 05/14/2019 01:19 PM 05/14/2019 01:24 PM 0.000 0.000 0.000 0.004 0.012 Not Reported Not Reported
05/15/2019 05:31 AM 51.62 48.20 44.96 61.34 52.34 78.0 Not Reported 1.57 N 0.89 W 3.80 NW No 0.000 No Precipitation 05/14/2019 01:19 PM 05/14/2019 01:24 PM 0.000 0.000 0.000 0.004 0.012 Not Reported Not Reported
05/15/2019 05:46 AM 51.98 48.56 45.50 61.34 52.34 78.0 Not Reported 0.89 NW 2.46 S 2.68 NW No 0.000 No Precipitation 05/14/2019 01:19 PM 05/14/2019 01:24 PM 0.000 0.000 0.000 0.004 0.012 Not Reported Not Reported
05/15/2019 06:01 AM 52.16 48.38 45.14 61.34 52.34 76.0 Not Reported 3.13 S 2.91 SW 4.03 S No 0.000 No Precipitation 05/14/2019 01:19 PM 05/14/2019 01:24 PM 0.000 0.000 0.000 0.004 0.012 Not Reported Not Reported
05/15/2019 06:16 AM 51.80 48.38 45.14 61.34 52.34 77.0 Not Reported 0.89 NW 1.12 N 4.70 SW No 0.000 No Precipitation 05/14/2019 01:19 PM 05/14/2019 01:24 PM 0.000 0.000 0.000 0.004 0.012 Not Reported Not Reported
05/15/2019 06:31 AM 52.16 48.20 44.60 61.34 52.34 75.0 Not Reported 3.13 S 1.34 S 3.80 SW No 0.000 No Precipitation 05/14/2019 01:19 PM 05/14/2019 01:24 PM 0.000 0.000 0.000 0.004 0.012 Not Reported Not Reported
05/15/2019 06:46 AM 53.96 48.56 43.16 61.34 52.34 66.0 Not Reported 7.16 S 8.95 SE 6.49 S No 0.000 No Precipitation 05/14/2019 01:19 PM 05/14/2019 01:24 PM 0.000 0.000 0.000 0.004 0.012 Not Reported Not Reported
05/15/2019 07:01 AM 53.24 48.38 43.88 61.34 52.34 70.0 Not Reported 4.92 S 5.37 SW 5.59 S No 0.000 No Precipitation 05/14/2019 01:19 PM 05/14/2019 01:24 PM 0.000 0.000 0.000 0.004 0.012 Not Reported Not Reported
05/15/2019 07:16 AM 52.88 48.56 44.42 61.34 52.34 73.0 Not Reported 6.93 S 6.71 S 7.38 S No 0.000 No Precipitation 05/14/2019 01:19 PM 05/14/2019 01:24 PM 0.000 0.000 0.000 0.004 0.012 Not Reported Not Reported
05/15/2019 07:31 AM 53.06 48.56 44.42 61.34 52.34 72.0 Not Reported 6.26 S 4.92 SE 10.07 S No 0.000 No Precipitation 05/14/2019 01:19 PM 05/14/2019 01:24 PM 0.000 0.000 0.000 0.004 0.012 Not Reported Not Reported
05/15/2019 07:46 AM 53.24 48.20 43.52 61.34 52.34 69.0 Not Reported 4.70 S 5.82 S 9.62 S No 0.000 No Precipitation 05/14/2019 01:19 PM 05/14/2019 01:24 PM 0.000 0.000 0.000 0.004 0.012 Not Reported Not Reported
05/15/2019 08:01 AM 53.60 48.38 43.34 61.34 52.34 67.0 Not Reported 6.93 S 3.80 SW 8.50 S No 0.000 No Precipitation 05/14/2019 01:19 PM 05/14/2019 01:24 PM 0.000 0.000 0.000 0.004 0.012 Not Reported Not Reported
05/15/2019 08:16 AM 53.96 48.02 42.44 61.34 52.34 64.0 Not Reported 11.41 S 11.18 S 11.63 S No 0.000 No Precipitation 05/14/2019 01:19 PM 05/14/2019 01:24 PM 0.000 0.000 0.000 0.004 0.012 Not Reported Not Reported
05/15/2019 08:31 AM 53.96 48.20 42.80 61.34 52.34 65.0 Not Reported 7.61 S 9.62 S 9.62 S No 0.000 No Precipitation 05/14/2019 01:19 PM 05/14/2019 01:24 PM 0.000 0.000 0.000 0.004 0.012 Not Reported Not Reported
05/15/2019 08:46 AM 54.32 48.20 42.44 61.34 52.34 64.0 Not Reported 7.83 S 4.92 S 11.18 SE No 0.000 No Precipitation 05/14/2019 01:19 PM 05/14/2019 01:24 PM 0.000 0.000 0.000 0.004 0.012 Not Reported Not Reported
05/15/2019 09:01 AM 54.32 48.02 41.90 61.34 52.34 62.0 Not Reported 6.26 S 8.95 SE 11.63 S No 0.000 No Precipitation 05/14/2019 01:19 PM 05/14/2019 01:24 PM 0.000 0.000 0.000 0.004 0.012 Not Reported Not Reported
05/15/2019 09:16 AM 54.32 48.02 41.90 61.34 52.34 63.0 Not Reported 10.29 S 10.96 S 12.08 S No 0.000 No Precipitation 05/14/2019 01:19 PM 05/14/2019 01:24 PM 0.000 0.000 0.000 0.004 0.012 Not Reported Not Reported
05/15/2019 09:31 AM 54.68 48.02 41.54 61.34 52.34 61.0 Not Reported 9.40 S 8.05 SE 12.75 S No 0.000 No Precipitation 05/14/2019 01:19 PM 05/14/2019 01:24 PM 0.000 0.000 0.000 0.000 0.012 Not Reported Not Reported
05/15/2019 09:46 AM 54.68 47.84 41.00 61.34 52.34 59.0 Not Reported 7.83 SE 5.37 S 10.96 SE No 0.000 No Precipitation 05/14/2019 01:19 PM 05/14/2019 01:24 PM 0.000 0.000 0.000 0.000 0.012 Not Reported Not Reported
05/15/2019 10:01 AM 54.86 47.84 41.00 61.34 52.34 59.0 Not Reported 10.29 S 11.63 S 14.32 SE No 0.000 No Precipitation 05/14/2019 01:19 PM 05/14/2019 01:24 PM 0.000 0.000 0.000 0.000 0.012 Not Reported Not Reported
05/15/2019 10:16 AM 53.42 47.84 42.62 61.34 52.34 66.0 Not Reported 17.22 S 13.42 S 19.69 S No 0.000 No Precipitation 05/14/2019 01:19 PM 05/14/2019 01:24 PM 0.000 0.000 0.000 0.000 0.012 Not Reported Not Reported
05/15/2019 10:31 AM 53.42 47.66 42.26 61.34 52.34 65.0 Not Reported 20.36 S 18.79 S 21.70 SE No 0.000 No Precipitation 05/14/2019 01:19 PM 05/14/2019 01:24 PM 0.000 0.000 0.000 0.000 0.012 Not Reported Not Reported
05/15/2019 10:46 AM 52.52 48.02 43.52 61.34 52.34 71.0 Not Reported 16.78 S 14.09 S 24.61 S No 0.000 No Precipitation 05/14/2019 01:19 PM 05/14/2019 01:24 PM 0.000 0.000 0.000 0.000 0.012 Not Reported Not Reported
05/15/2019 11:01 AM 53.06 48.38 44.06 61.34 52.34 71.0 Not Reported 9.84 S 10.07 SE 15.66 S No 0.000 No Precipitation 05/14/2019 01:19 PM 05/14/2019 01:24 PM 0.000 0.000 0.000 0.000 0.012 Not Reported Not Reported
05/15/2019 11:16 AM 53.42 48.02 42.98 61.34 52.34 67.0 Not Reported 16.11 S 15.43 S 15.66 S No 0.000 No Precipitation 05/14/2019 01:19 PM 05/14/2019 01:24 PM 0.000 0.000 0.000 0.000 0.012 Not Reported Not Reported
05/15/2019 11:31 AM 53.42 48.02 42.98 61.34 52.34 67.0 Not Reported 21.03 S 21.47 S 24.83 S No 0.000 No Precipitation 05/14/2019 01:19 PM 05/14/2019 01:24 PM 0.000 0.000 0.000 0.000 0.012 Not Reported Not Reported
05/15/2019 11:46 AM 53.42 48.38 43.70 61.34 52.34 69.0 Not Reported 19.01 S 18.34 S 24.61 S No 0.000 No Precipitation 05/14/2019 01:19 PM 05/14/2019 01:24 PM 0.000 0.000 0.000 0.000 0.012 Not Reported Not Reported
05/15/2019 12:01 PM 54.32 48.92 43.88 61.34 52.34 67.0 Not Reported 19.01 S 22.82 S 22.82 SE No 0.000 No Precipitation 05/14/2019 01:19 PM 05/14/2019 01:24 PM 0.000 0.000 0.000 0.000 0.012 Not Reported Not Reported
05/15/2019 12:16 PM 55.76 49.46 43.52 61.34 52.34 63.0 Not Reported 17.90 S 23.26 SE 22.82 S No 0.000 No Precipitation 05/14/2019 01:19 PM 05/14/2019 01:24 PM 0.000 0.000 0.000 0.000 0.012 Not Reported Not Reported
05/15/2019 12:31 PM 55.94 48.56 41.54 61.34 52.34 58.0 Not Reported 22.37 S 21.70 S 27.51 S No 0.000 No Precipitation 05/14/2019 01:19 PM 05/14/2019 01:24 PM 0.000 0.000 0.000 0.000 0.012 Not Reported Not Reported
05/15/2019 12:46 PM 56.30 48.56 41.00 61.34 52.34 56.0 Not Reported 22.15 S 22.82 S 24.83 S No 0.000 No Precipitation 05/14/2019 01:19 PM 05/14/2019 01:24 PM 0.000 0.000 0.000 0.000 0.012 Not Reported Not Reported
05/15/2019 01:01 PM 56.48 48.74 41.18 61.34 52.34 56.0 Not Reported 22.82 S 24.83 S 26.40 S No 0.000 No Precipitation 05/14/2019 01:19 PM 05/14/2019 01:24 PM 0.000 0.000 0.000 0.000 0.012 Not Reported Not Reported
05/15/2019 01:16 PM 57.38 48.92 40.64 61.34 52.34 53.0 Not Reported 24.16 S 27.07 S 27.29 S No 0.000 No Precipitation 05/14/2019 01:19 PM 05/14/2019 01:24 PM 0.000 0.000 0.000 0.000 0.012 Not Reported Not Reported
05/15/2019 01:31 PM 57.38 48.74 40.46 61.34 52.34 53.0 Not Reported 27.74 S 23.94 S 29.53 S No 0.000 No Precipitation 05/14/2019 01:19 PM 05/14/2019 01:24 PM 0.000 0.000 0.000 0.000 0.008 Not Reported Not Reported
05/15/2019 01:46 PM 56.84 48.56 40.28 61.34 52.34 53.0 Not Reported 22.37 S 22.59 S 27.74 S No 0.000 No Precipitation 05/14/2019 01:19 PM 05/14/2019 01:24 PM 0.000 0.000 0.000 0.000 0.008 Not Reported Not Reported
05/15/2019 02:01 PM 56.66 48.20 40.10 61.34 52.34 53.0 Not Reported 22.59 S 26.17 S 29.30 S No 0.000 No Precipitation 05/14/2019 01:19 PM 05/14/2019 01:24 PM 0.000 0.000 0.000 0.000 0.008 Not Reported Not Reported
05/15/2019 02:16 PM 57.20 48.74 40.46 61.34 52.34 53.0 Not Reported 26.84 S 25.28 S 27.96 S No 0.000 No Precipitation 05/14/2019 01:19 PM 05/14/2019 01:24 PM 0.000 0.000 0.000 0.000 0.008 Not Reported Not Reported
05/15/2019 02:31 PM 58.28 49.46 40.82 61.34 52.34 51.0 Not Reported 19.91 S 21.92 S 26.84 S No 0.000 No Precipitation 05/14/2019 01:19 PM 05/14/2019 01:24 PM 0.000 0.000 0.000 0.000 0.008 Not Reported Not Reported
05/15/2019 02:46 PM 59.90 50.00 40.46 61.34 52.34 48.0 Not Reported 21.92 S 22.59 SE 27.96 SE No 0.000 No Precipitation 05/14/2019 01:19 PM 05/14/2019 01:24 PM 0.000 0.000 0.000 0.000 0.008 Not Reported Not Reported
05/15/2019 03:01 PM 58.10 49.28 40.82 61.34 52.34 52.0 Not Reported 23.94 S 21.25 S 30.20 SE No 0.000 No Precipitation 05/14/2019 01:19 PM 05/14/2019 01:24 PM 0.000 0.000 0.000 0.000 0.008 Not Reported Not Reported
05/15/2019 03:16 PM 59.18 50.00 41.18 61.34 52.34 51.0 Not Reported 25.05 S 25.50 S 30.87 S No 0.000 No Precipitation 05/14/2019 01:19 PM 05/14/2019 01:24 PM 0.000 0.000 0.000 0.000 0.008 Not Reported Not Reported
05/15/2019 03:31 PM 58.10 49.28 40.64 61.34 52.34 52.0 Not Reported 23.71 S 27.74 S 28.63 S No 0.000 No Precipitation 05/14/2019 01:19 PM 05/14/2019 01:24 PM 0.000 0.000 0.000 0.000 0.008 Not Reported Not Reported
05/15/2019 03:46 PM 57.20 49.10 41.18 61.34 52.34 54.0 Not Reported 23.04 S 24.38 S 27.74 S No 0.000 No Precipitation 05/14/2019 01:19 PM 05/14/2019 01:24 PM 0.000 0.000 0.000 0.000 0.008 Not Reported Not Reported
05/15/2019 04:01 PM 60.80 51.08 42.08 61.34 52.34 49.0 Not Reported 20.13 S 20.36 S 26.62 S No 0.000 No Precipitation 05/14/2019 01:19 PM 05/14/2019 01:24 PM 0.000 0.000 0.000 0.000 0.008 Not Reported Not Reported
05/15/2019 04:16 PM 59.36 50.00 41.00 61.34 52.34 50.0 Not Reported 19.24 S 21.70 S 27.29 S No 0.000 No Precipitation 05/14/2019 01:19 PM 05/14/2019 01:24 PM 0.000 0.000 0.000 0.000 0.004 Not Reported Not Reported
05/15/2019 04:31 PM 59.54 50.54 42.08 61.34 52.34 52.0 Not Reported 21.47 S 20.13 S 24.61 SE No 0.000 No Precipitation 05/14/2019 01:19 PM 05/14/2019 01:24 PM 0.000 0.000 0.000 0.000 0.004 Not Reported Not Reported
05/15/2019 04:46 PM 59.72 50.72 41.54 61.34 52.34 50.0 Not Reported 20.36 S 25.72 SE 24.16 S No 0.000 No Precipitation 05/14/2019 01:19 PM 05/14/2019 01:24 PM 0.000 0.000 0.000 0.000 0.004 Not Reported Not Reported
05/15/2019 05:01 PM 58.64 49.82 41.72 61.34 52.34 53.0 Not Reported 22.37 S 21.92 SE 25.28 S No 0.000 No Precipitation 05/14/2019 01:19 PM 05/14/2019 01:24 PM 0.000 0.000 0.000 0.000 0.004 Not Reported Not Reported
05/15/2019 05:16 PM 58.28 49.64 41.54 61.34 52.34 53.0 Not Reported 24.16 S 25.05 S 25.72 S No 0.000 No Precipitation 05/14/2019 01:19 PM 05/14/2019 01:24 PM 0.000 0.000 0.000 0.000 0.004 Not Reported Not Reported
05/15/2019 05:31 PM 58.28 49.82 42.08 61.34 52.34 54.0 Not Reported 20.80 S 21.92 S 22.37 S No 0.000 No Precipitation 05/14/2019 01:19 PM 05/14/2019 01:24 PM 0.000 0.000 0.000 0.000 0.004 Not Reported Not Reported
05/15/2019 05:46 PM 58.10 49.64 41.72 61.34 52.34 54.0 Not Reported 22.82 S 19.69 SE 25.05 S No 0.000 No Precipitation 05/14/2019 01:19 PM 05/14/2019 01:24 PM 0.000 0.000 0.000 0.000 0.004 Not Reported Not Reported
05/15/2019 06:01 PM 57.38 49.46 42.26 61.34 52.34 56.0 Not Reported 18.34 S 21.25 SE 27.96 S No 0.000 No Precipitation 05/14/2019 01:19 PM 05/14/2019 01:24 PM 0.000 0.000 0.000 0.000 0.004 Not Reported Not Reported
05/15/2019 06:16 PM 57.02 49.46 42.44 61.34 52.34 57.0 Not Reported 16.11 S 15.66 S 24.38 S No 0.000 No Precipitation 05/14/2019 01:19 PM 05/14/2019 01:24 PM 0.000 0.000 0.000 0.000 0.004 Not Reported Not Reported
05/15/2019 06:31 PM 56.66 49.28 42.26 61.34 52.34 58.0 Not Reported 19.46 S 17.45 S 22.82 S No 0.000 No Precipitation 05/14/2019 01:19 PM 05/14/2019 01:24 PM 0.000 0.000 0.000 0.000 0.004 Not Reported Not Reported
05/15/2019 06:46 PM 56.66 49.46 42.80 61.34 52.34 59.0 Not Reported 16.78 S 11.63 S 21.25 S No 0.000 No Precipitation 05/14/2019 01:19 PM 05/14/2019 01:24 PM 0.000 0.000 0.000 0.000 0.004 Not Reported Not Reported
05/15/2019 07:01 PM 56.30 49.28 42.62 61.34 52.34 60.0 Not Reported 19.46 S 20.80 S 23.71 S No 0.000 No Precipitation 05/14/2019 01:19 PM 05/14/2019 01:24 PM 0.000 0.000 0.000 0.000 0.004 Not Reported Not Reported
05/15/2019 07:16 PM 56.12 49.46 42.80 61.34 52.34 61.0 Not Reported 21.25 S 24.38 S 23.04 S No 0.000 No Precipitation 05/14/2019 01:19 PM 05/14/2019 01:24 PM 0.000 0.000 0.000 0.000 0.004 Not Reported Not Reported
05/15/2019 07:31 PM 56.12 49.46 43.16 61.34 52.34 61.0 Not Reported 17.67 S 17.22 S 24.83 S No 0.000 No Precipitation 05/14/2019 01:19 PM 05/14/2019 01:24 PM 0.000 0.000 0.000 0.000 0.004 Not Reported Not Reported
05/15/2019 07:46 PM 55.58 48.92 42.62 61.34 52.34 61.0 Not Reported 20.80 S 18.79 S 24.38 S No 0.000 No Precipitation 05/14/2019 01:19 PM 05/14/2019 01:24 PM 0.000 0.000 0.000 0.000 0.004 Not Reported Not Reported
05/15/2019 08:01 PM 55.40 48.92 42.80 61.34 52.34 62.0 Not Reported 15.43 S 17.00 S 25.72 S No 0.000 No Precipitation 05/14/2019 01:19 PM 05/14/2019 01:24 PM 0.000 0.000 0.000 0.000 0.004 Not Reported Not Reported
05/15/2019 08:16 PM 54.86 48.20 41.90 61.34 52.34 61.0 Not Reported 19.24 S 21.70 SW 19.46 SE No 0.000 No Precipitation 05/14/2019 01:19 PM 05/14/2019 01:24 PM 0.000 0.000 0.000 0.000 0.004 Not Reported Not Reported
05/15/2019 08:31 PM 54.32 48.02 41.90 61.34 52.34 62.0 Not Reported 21.92 S 12.08 S 25.05 S No 0.000 No Precipitation 05/14/2019 01:19 PM 05/14/2019 01:24 PM 0.000 0.000 0.000 0.000 0.004 Not Reported Not Reported
05/15/2019 08:46 PM 53.96 47.84 41.90 61.34 52.34 63.0 Not Reported 20.58 S 24.38 S 23.26 S No 0.000 No Precipitation 05/14/2019 01:19 PM 05/14/2019 01:24 PM 0.000 0.000 0.000 0.000 0.004 Not Reported Not Reported
05/15/2019 09:01 PM 53.60 47.48 41.54 61.34 52.34 63.0 Not Reported 22.37 S 22.15 S 26.17 S No 0.000 No Precipitation 05/14/2019 01:19 PM 05/14/2019 01:24 PM 0.000 0.000 0.000 0.000 0.004 Not Reported Not Reported
05/15/2019 09:16 PM 53.06 47.30 41.72 61.34 52.34 65.0 Not Reported 19.24 S 21.03 S 25.72 S No 0.000 No Precipitation 05/14/2019 01:19 PM 05/14/2019 01:24 PM 0.000 0.000 0.000 0.000 0.004 Not Reported Not Reported
05/15/2019 09:31 PM 52.88 47.30 41.90 61.34 52.34 66.0 Not Reported 16.78 S 17.22 S 20.13 SE No 0.000 No Precipitation 05/14/2019 01:19 PM 05/14/2019 01:24 PM 0.000 0.000 0.000 0.000 0.000 Not Reported Not Reported
05/15/2019 09:46 PM 52.52 47.30 42.26 61.34 52.34 67.0 Not Reported 16.11 S 16.78 S 21.25 S No 0.000 No Precipitation 05/14/2019 01:19 PM 05/14/2019 01:24 PM 0.000 0.000 0.000 0.000 0.000 Not Reported Not Reported
05/15/2019 10:01 PM 52.16 47.48 42.80 61.34 52.34 70.0 Not Reported 15.88 S 19.91 S 19.69 S No 0.000 No Precipitation 05/14/2019 01:19 PM 05/14/2019 01:24 PM 0.000 0.000 0.000 0.000 0.000 Not Reported Not Reported
05/15/2019 10:16 PM 51.80 47.30 43.34 61.34 52.34 72.0 Not Reported 19.24 S 21.92 S 23.49 S No 0.000 No Precipitation 05/14/2019 01:19 PM 05/14/2019 01:24 PM 0.000 0.000 0.000 0.000 0.000 Not Reported Not Reported
05/15/2019 10:31 PM 51.08 47.48 43.88 61.34 52.34 76.0 Not Reported 19.46 S 21.25 S 28.63 S No 0.000 No Precipitation 05/14/2019 01:19 PM 05/14/2019 01:24 PM 0.000 0.000 0.000 0.000 0.000 Not Reported Not Reported
05/15/2019 10:46 PM 50.54 47.12 43.88 61.34 52.34 77.0 Not Reported 16.78 S 19.91 SE 21.70 S No 0.000 No Precipitation 05/14/2019 01:19 PM 05/14/2019 01:24 PM 0.000 0.000 0.000 0.000 0.000 Not Reported Not Reported
05/15/2019 11:01 PM 49.82 46.76 43.52 61.34 52.34 78.0 Not Reported 19.46 S 15.21 S 21.92 S No 0.000 No Precipitation 05/14/2019 01:19 PM 05/14/2019 01:24 PM 0.000 0.000 0.000 0.000 0.000 Not Reported Not Reported
05/15/2019 11:16 PM 49.10 46.04 42.98 61.34 52.34 79.0 Not Reported 19.69 S 19.24 S 21.03 S No 0.000 No Precipitation 05/14/2019 01:19 PM 05/14/2019 01:24 PM 0.000 0.000 0.000 0.000 0.000 Not Reported Not Reported
05/15/2019 11:31 PM 49.10 45.68 42.44 61.34 52.34 77.0 Not Reported 20.13 S 22.15 S 24.16 S No 0.000 No Precipitation 05/14/2019 01:19 PM 05/14/2019 01:24 PM 0.000 0.000 0.000 0.000 0.000 Not Reported Not Reported
05/15/2019 11:46 PM 48.38 45.50 42.80 61.34 52.34 80.0 Not Reported 18.12 S 14.54 S 26.17 S No 0.000 No Precipitation 05/14/2019 01:19 PM 05/14/2019 01:24 PM 0.000 0.000 0.000 0.000 0.000 Not Reported Not Reported